createdAt,value
2018-07-14T00:00:23.133Z,18.03
2018-07-14T00:01:23.322Z,18.15
2018-07-14T00:02:23.513Z,18.05
2018-07-14T00:03:23.684Z,18.13
2018-07-14T00:04:23.861Z,18.11
2018-07-14T00:05:28.483Z,18.04
2018-07-14T00:06:26.032Z,18.01
2018-07-14T00:07:27.571Z,17.97
2018-07-14T00:08:27.025Z,17.98
2018-07-14T00:09:27.473Z,17.86
2018-07-14T00:10:26.994Z,17.83
2018-07-14T00:11:28.915Z,17.83
2018-07-14T00:12:28.639Z,17.71
2018-07-14T00:13:27.474Z,17.68
2018-07-14T00:14:27.780Z,17.68
2018-07-14T00:15:28.487Z,17.67
2018-07-14T00:16:28.589Z,17.63
2018-07-14T00:17:25.936Z,17.71
2018-07-14T00:18:26.387Z,17.65
2018-07-14T00:19:29.474Z,17.65
2018-07-14T00:20:26.492Z,17.71
2018-07-14T00:21:29.515Z,17.64
2018-07-14T00:22:26.858Z,17.54
2018-07-14T00:23:27.043Z,17.64
2018-07-14T00:24:27.258Z,17.63
2018-07-14T00:25:27.400Z,17.60
2018-07-14T00:26:27.581Z,17.70
2018-07-14T00:27:27.764Z,17.68
2018-07-14T00:28:27.945Z,17.67
2018-07-14T00:29:28.133Z,17.68
2018-07-14T00:30:28.311Z,17.71
2018-07-14T00:31:28.493Z,17.68
2018-07-14T00:32:28.675Z,17.65
2018-07-14T00:33:28.861Z,17.72
2018-07-14T00:34:29.042Z,17.57
2018-07-14T00:35:29.222Z,17.63
2018-07-14T00:36:29.399Z,17.65
2018-07-14T00:37:29.584Z,17.68
2018-07-14T00:38:29.766Z,17.56
2018-07-14T00:39:29.945Z,17.63
2018-07-14T00:40:30.131Z,17.54
2018-07-14T00:41:30.314Z,17.60
2018-07-14T00:42:30.495Z,17.52
2018-07-14T00:43:30.678Z,17.54
2018-07-14T00:44:30.851Z,17.56
2018-07-14T00:45:31.057Z,17.54
2018-07-14T00:46:31.269Z,17.49
2018-07-14T00:47:31.461Z,17.54
2018-07-14T00:48:32.520Z,17.52
2018-07-14T00:49:34.856Z,17.54
2018-07-14T00:50:31.878Z,17.57
2018-07-14T00:51:32.062Z,17.51
2018-07-14T00:52:32.241Z,17.42
2018-07-14T00:53:32.416Z,17.46
2018-07-14T00:54:32.602Z,17.45
2018-07-14T00:55:32.781Z,17.46
2018-07-14T00:56:32.968Z,17.39
2018-07-14T00:57:33.153Z,17.39
2018-07-14T00:58:33.338Z,17.31
2018-07-14T00:59:33.509Z,17.24
2018-07-14T01:00:33.693Z,17.26
2018-07-14T01:01:33.878Z,17.22
2018-07-14T01:02:34.065Z,17.27
2018-07-14T01:03:34.242Z,17.20
2018-07-14T01:04:34.423Z,17.08
2018-07-14T01:05:34.599Z,17.11
2018-07-14T01:06:34.776Z,17.06
2018-07-14T01:07:34.953Z,16.97
2018-07-14T01:08:35.134Z,17.02
2018-07-14T01:09:35.318Z,16.99
2018-07-14T01:10:35.495Z,16.97
2018-07-14T01:11:35.674Z,16.84
2018-07-14T01:12:35.849Z,16.87
2018-07-14T01:13:36.028Z,16.84
2018-07-14T01:14:36.208Z,16.79
2018-07-14T01:15:36.387Z,16.79
2018-07-14T01:16:36.576Z,16.66
2018-07-14T01:17:36.771Z,16.74
2018-07-14T01:18:36.946Z,16.66
2018-07-14T01:19:37.111Z,16.71
2018-07-14T01:20:37.290Z,16.64
2018-07-14T01:21:37.473Z,16.61
2018-07-14T01:22:37.658Z,16.61
2018-07-14T01:23:37.835Z,16.64
2018-07-14T01:24:38.026Z,16.61
2018-07-14T01:25:38.208Z,16.66
2018-07-14T01:26:38.387Z,16.71
2018-07-14T01:27:38.568Z,16.76
2018-07-14T01:28:38.743Z,16.71
2018-07-14T01:29:38.917Z,16.76
2018-07-14T01:30:39.096Z,16.69
2018-07-14T01:31:39.284Z,16.71
2018-07-14T01:32:39.475Z,16.69
2018-07-14T01:33:39.648Z,16.60
2018-07-14T01:34:39.838Z,16.66
2018-07-14T01:35:40.013Z,16.57
2018-07-14T01:36:40.198Z,16.54
2018-07-14T01:37:40.371Z,16.53
2018-07-14T01:38:40.546Z,16.54
2018-07-14T01:39:40.728Z,16.60
2018-07-14T01:40:40.968Z,16.53
2018-07-14T01:41:41.104Z,16.66
2018-07-14T01:42:41.283Z,16.57
2018-07-14T01:43:41.464Z,16.54
2018-07-14T01:44:41.651Z,16.51
2018-07-14T01:45:41.835Z,16.49
2018-07-14T01:46:42.015Z,16.49
2018-07-14T01:47:42.199Z,16.51
2018-07-14T01:48:42.382Z,16.43
2018-07-14T01:49:42.559Z,16.38
2018-07-14T01:50:42.740Z,16.46
2018-07-14T01:51:42.927Z,16.35
2018-07-14T01:52:43.104Z,16.36
2018-07-14T01:53:43.274Z,16.28
2018-07-14T01:54:43.451Z,16.28
2018-07-14T01:55:43.628Z,16.36
2018-07-14T01:56:43.813Z,16.28
2018-07-14T01:57:43.991Z,16.17
2018-07-14T01:58:44.174Z,16.17
2018-07-14T01:59:44.351Z,16.21
2018-07-14T02:00:44.524Z,16.26
2018-07-14T02:01:44.717Z,16.13
2018-07-14T02:02:44.892Z,16.32
2018-07-14T02:03:45.075Z,16.26
2018-07-14T02:04:45.256Z,16.35
2018-07-14T02:05:45.432Z,16.16
2018-07-14T02:06:45.619Z,16.10
2018-07-14T02:07:45.796Z,16.24
2018-07-14T02:08:45.973Z,16.23
2018-07-14T02:09:46.150Z,16.16
2018-07-14T02:10:46.329Z,16.10
2018-07-14T02:11:46.505Z,16.10
2018-07-14T02:12:46.680Z,16.08
2018-07-14T02:13:46.861Z,16.04
2018-07-14T02:14:47.037Z,16.08
2018-07-14T02:15:47.213Z,16.01
2018-07-14T02:16:47.392Z,16.02
2018-07-14T02:17:47.573Z,16.00
2018-07-14T02:18:47.758Z,16.04
2018-07-14T02:19:47.945Z,16.00
2018-07-14T02:20:48.131Z,15.95
2018-07-14T02:21:48.298Z,15.94
2018-07-14T02:22:48.477Z,15.90
2018-07-14T02:23:48.666Z,15.92
2018-07-14T02:24:48.846Z,15.80
2018-07-14T02:25:49.026Z,15.82
2018-07-14T02:26:49.203Z,15.83
2018-07-14T02:27:49.406Z,15.82
2018-07-14T02:28:49.562Z,15.83
2018-07-14T02:29:49.747Z,15.84
2018-07-14T02:30:49.931Z,15.73
2018-07-14T02:31:50.109Z,15.76
2018-07-14T02:32:50.295Z,15.73
2018-07-14T02:33:50.472Z,15.73
2018-07-14T02:34:50.647Z,15.84
2018-07-14T02:35:50.827Z,15.79
2018-07-14T02:36:51.003Z,15.68
2018-07-14T02:37:51.180Z,15.68
2018-07-14T02:38:51.356Z,15.73
2018-07-14T02:39:51.538Z,15.73
2018-07-14T02:40:51.724Z,15.70
2018-07-14T02:41:51.903Z,15.72
2018-07-14T02:42:52.091Z,15.70
2018-07-14T02:43:52.271Z,15.64
2018-07-14T02:44:52.452Z,15.80
2018-07-14T02:45:52.634Z,15.65
2018-07-14T02:46:52.807Z,15.59
2018-07-14T02:47:52.994Z,15.58
2018-07-14T02:48:53.171Z,15.59
2018-07-14T02:49:53.352Z,15.67
2018-07-14T02:50:53.532Z,15.57
2018-07-14T02:51:53.711Z,15.58
2018-07-14T02:52:53.902Z,15.55
2018-07-14T02:53:54.076Z,15.58
2018-07-14T02:54:54.252Z,15.51
2018-07-14T02:55:54.426Z,15.39
2018-07-14T02:56:54.605Z,15.51
2018-07-14T02:57:54.788Z,15.46
2018-07-14T02:58:54.965Z,15.43
2018-07-14T02:59:55.226Z,15.42
2018-07-14T03:00:55.325Z,15.37
2018-07-14T03:01:55.499Z,15.35
2018-07-14T03:02:55.684Z,15.39
2018-07-14T03:03:55.851Z,15.36
2018-07-14T03:04:56.024Z,15.42
2018-07-14T03:05:56.209Z,15.43
2018-07-14T03:06:56.383Z,15.40
2018-07-14T03:07:56.558Z,15.40
2018-07-14T03:08:56.737Z,15.43
2018-07-14T03:09:56.914Z,15.52
2018-07-14T03:10:57.092Z,15.49
2018-07-14T03:11:57.263Z,15.51
2018-07-14T03:12:57.507Z,15.57
2018-07-14T03:13:57.622Z,15.47
2018-07-14T03:14:57.800Z,15.54
2018-07-14T03:15:57.979Z,15.51
2018-07-14T03:16:58.169Z,15.55
2018-07-14T03:17:58.342Z,15.46
2018-07-14T03:18:58.520Z,15.49
2018-07-14T03:19:58.704Z,15.44
2018-07-14T03:20:58.892Z,15.51
2018-07-14T03:21:59.068Z,15.52
2018-07-14T03:22:59.257Z,15.43
2018-07-14T03:23:59.434Z,15.40
2018-07-14T03:24:59.608Z,15.44
2018-07-14T03:25:59.791Z,15.31
2018-07-14T03:26:59.970Z,15.36
2018-07-14T03:28:00.148Z,15.37
2018-07-14T03:29:00.332Z,15.29
2018-07-14T03:30:00.510Z,15.35
2018-07-14T03:31:00.697Z,15.28
2018-07-14T03:32:00.880Z,15.33
2018-07-14T03:33:01.057Z,15.35
2018-07-14T03:34:01.236Z,15.36
2018-07-14T03:35:01.412Z,15.33
2018-07-14T03:36:01.595Z,15.25
2018-07-14T03:37:01.767Z,15.21
2018-07-14T03:38:01.955Z,15.29
2018-07-14T03:39:02.132Z,15.21
2018-07-14T03:40:02.325Z,15.18
2018-07-14T03:41:02.504Z,15.14
2018-07-14T03:42:02.691Z,15.15
2018-07-14T03:43:02.857Z,15.27
2018-07-14T03:44:03.038Z,15.21
2018-07-14T03:45:03.216Z,15.24
2018-07-14T03:46:03.395Z,15.25
2018-07-14T03:47:03.571Z,15.24
2018-07-14T03:48:03.751Z,15.25
2018-07-14T03:49:03.928Z,15.17
2018-07-14T03:50:04.111Z,15.15
2018-07-14T03:51:04.300Z,15.19
2018-07-14T03:52:04.473Z,15.11
2018-07-14T03:53:04.651Z,15.28
2018-07-14T03:54:04.837Z,15.28
2018-07-14T03:55:05.015Z,15.24
2018-07-14T03:56:05.199Z,15.31
2018-07-14T03:57:05.379Z,15.24
2018-07-14T03:58:05.558Z,15.39
2018-07-14T03:59:05.737Z,15.36
2018-07-14T04:00:05.914Z,15.42
2018-07-14T04:01:06.106Z,15.42
2018-07-14T04:02:06.280Z,15.47
2018-07-14T04:03:06.459Z,15.51
2018-07-14T04:04:06.633Z,15.58
2018-07-14T04:05:06.818Z,15.58
2018-07-14T04:06:06.997Z,15.67
2018-07-14T04:07:07.177Z,15.65
2018-07-14T04:08:07.364Z,15.70
2018-07-14T04:09:10.934Z,15.68
2018-07-14T04:10:10.813Z,15.70
2018-07-14T04:11:12.066Z,15.72
2018-07-14T04:12:07.979Z,15.79
2018-07-14T04:13:08.165Z,15.75
2018-07-14T04:14:08.340Z,15.77
2018-07-14T04:15:12.076Z,15.75
2018-07-14T04:16:10.455Z,15.70
2018-07-14T04:17:08.962Z,15.67
2018-07-14T04:18:11.638Z,15.80
2018-07-14T04:19:11.644Z,15.82
2018-07-14T04:20:13.168Z,15.80
2018-07-14T04:21:12.248Z,15.82
2018-07-14T04:22:09.790Z,15.80
2018-07-14T04:23:12.981Z,15.77
2018-07-14T04:24:10.140Z,15.83
2018-07-14T04:25:14.446Z,15.80
2018-07-14T04:26:14.533Z,15.86
2018-07-14T04:27:10.686Z,15.88
2018-07-14T04:28:10.857Z,15.84
2018-07-14T04:29:14.581Z,15.92
2018-07-14T04:30:12.206Z,15.92
2018-07-14T04:31:16.037Z,15.94
2018-07-14T04:32:11.599Z,15.92
2018-07-14T04:33:14.616Z,15.94
2018-07-14T04:34:12.458Z,15.97
2018-07-14T04:35:13.092Z,15.91
2018-07-14T04:36:12.283Z,15.95
2018-07-14T04:37:16.279Z,15.92
2018-07-14T04:38:12.647Z,15.98
2018-07-14T04:39:14.334Z,16.04
2018-07-14T04:40:15.215Z,16.12
2018-07-14T04:41:15.742Z,16.10
2018-07-14T04:42:13.447Z,16.26
2018-07-14T04:43:16.528Z,16.26
2018-07-14T04:44:13.808Z,16.29
2018-07-14T04:45:14.215Z,16.31
2018-07-14T04:46:16.180Z,16.42
2018-07-14T04:47:18.307Z,16.43
2018-07-14T04:48:16.437Z,16.51
2018-07-14T04:49:18.794Z,16.54
2018-07-14T04:50:14.877Z,16.68
2018-07-14T04:51:17.359Z,16.69
2018-07-14T04:52:15.786Z,16.71
2018-07-14T04:53:19.644Z,16.78
2018-07-14T04:54:18.992Z,16.83
2018-07-14T04:55:17.095Z,16.93
2018-07-14T04:56:17.041Z,16.93
2018-07-14T04:57:18.893Z,16.97
2018-07-14T04:58:19.215Z,16.97
2018-07-14T04:59:18.231Z,16.97
2018-07-14T05:00:20.521Z,17.11
2018-07-14T05:01:18.404Z,17.06
2018-07-14T05:02:17.342Z,17.22
2018-07-14T05:03:16.945Z,17.22
2018-07-14T05:04:19.170Z,17.26
2018-07-14T05:05:18.778Z,17.27
2018-07-14T05:06:17.403Z,17.39
2018-07-14T05:07:17.587Z,17.34
2018-07-14T05:08:18.665Z,17.45
2018-07-14T05:09:18.038Z,17.44
2018-07-14T05:10:18.233Z,17.39
2018-07-14T05:11:20.588Z,17.54
2018-07-14T05:12:18.538Z,17.63
2018-07-14T05:13:18.656Z,17.70
2018-07-14T05:14:18.835Z,17.72
2018-07-14T05:15:18.921Z,17.72
2018-07-14T05:16:19.035Z,17.80
2018-07-14T05:17:20.216Z,17.95
2018-07-14T05:18:19.359Z,17.94
2018-07-14T05:19:20.550Z,17.92
2018-07-14T05:20:21.187Z,18.03
2018-07-14T05:21:21.109Z,18.07
2018-07-14T05:22:19.941Z,18.10
2018-07-14T05:23:20.146Z,18.08
2018-07-14T05:24:20.420Z,18.19
2018-07-14T05:25:20.532Z,18.31
2018-07-14T05:26:22.110Z,18.37
2018-07-14T05:27:20.719Z,18.31
2018-07-14T05:28:20.926Z,18.37
2018-07-14T05:29:21.111Z,18.35
2018-07-14T05:30:21.296Z,18.49
2018-07-14T05:31:21.573Z,18.58
2018-07-14T05:32:21.643Z,18.56
2018-07-14T05:33:21.826Z,18.77
2018-07-14T05:34:21.993Z,18.77
2018-07-14T05:35:22.180Z,18.84
2018-07-14T05:36:22.367Z,18.92
2018-07-14T05:37:25.441Z,18.93
2018-07-14T05:38:22.915Z,18.77
2018-07-14T05:39:22.901Z,18.89
2018-07-14T05:40:23.261Z,18.96
2018-07-14T05:41:23.308Z,19.11
2018-07-14T05:42:23.520Z,19.15
2018-07-14T05:43:25.897Z,18.99
2018-07-14T05:44:23.789Z,19.12
2018-07-14T05:45:23.992Z,19.26
2018-07-14T05:46:25.891Z,19.36
2018-07-14T05:47:24.360Z,19.31
2018-07-14T05:48:24.556Z,19.44
2018-07-14T05:49:24.749Z,19.56
2018-07-14T05:50:24.997Z,19.69
2018-07-14T05:51:25.190Z,19.74
2018-07-14T05:52:25.343Z,19.81
2018-07-14T05:53:27.173Z,19.82
2018-07-14T05:54:25.731Z,19.84
2018-07-14T05:55:25.912Z,19.89
2018-07-14T05:56:26.097Z,20.03
2018-07-14T05:57:26.282Z,20.18
2018-07-14T05:58:26.474Z,20.19
2018-07-14T05:59:26.649Z,20.29
2018-07-14T06:00:26.838Z,20.32
2018-07-14T06:01:27.025Z,20.40
2018-07-14T06:02:27.212Z,20.56
2018-07-14T06:03:27.498Z,20.59
2018-07-14T06:04:27.495Z,20.47
2018-07-14T06:05:27.684Z,20.43
2018-07-14T06:06:27.865Z,20.43
2018-07-14T06:07:28.040Z,20.40
2018-07-14T06:08:28.230Z,20.44
2018-07-14T06:09:28.405Z,20.51
2018-07-14T06:10:28.590Z,20.60
2018-07-14T06:11:28.783Z,20.82
2018-07-14T06:12:28.966Z,20.81
2018-07-14T06:13:29.153Z,20.82
2018-07-14T06:14:29.334Z,20.92
2018-07-14T06:15:29.537Z,21.03
2018-07-14T06:16:29.731Z,21.15
2018-07-14T06:17:29.913Z,21.27
2018-07-14T06:18:30.111Z,21.48
2018-07-14T06:19:30.336Z,21.50
2018-07-14T06:20:30.478Z,21.58
2018-07-14T06:21:30.808Z,21.64
2018-07-14T06:22:30.858Z,21.72
2018-07-14T06:23:31.042Z,21.82
2018-07-14T06:24:31.231Z,21.99
2018-07-14T06:25:31.424Z,22.13
2018-07-14T06:26:31.603Z,22.28
2018-07-14T06:27:31.788Z,22.63
2018-07-14T06:28:32.197Z,22.60
2018-07-14T06:29:32.126Z,22.76
2018-07-14T06:30:32.336Z,23.21
2018-07-14T06:31:32.580Z,23.41
2018-07-14T06:32:32.643Z,23.81
2018-07-14T06:33:32.827Z,24.16
2018-07-14T06:34:33.018Z,24.58
2018-07-14T06:35:33.206Z,24.70
2018-07-14T06:36:33.403Z,25.14
2018-07-14T06:37:33.713Z,25.60
2018-07-14T06:38:33.794Z,26.05
2018-07-14T06:39:33.984Z,26.58
2018-07-14T06:40:34.163Z,26.97
2018-07-14T06:41:34.358Z,27.49
2018-07-14T06:42:34.545Z,27.90
2018-07-14T06:43:34.742Z,28.38
2018-07-14T06:44:34.990Z,28.82
2018-07-14T06:45:35.150Z,29.23
2018-07-14T06:46:35.328Z,29.57
2018-07-14T06:47:35.520Z,29.72
2018-07-14T06:48:35.723Z,29.56
2018-07-14T06:49:35.909Z,29.50
2018-07-14T06:50:36.116Z,29.88
2018-07-14T06:51:36.310Z,29.90
2018-07-14T06:52:36.500Z,30.40
2018-07-14T06:53:36.688Z,30.32
2018-07-14T06:54:36.981Z,30.05
2018-07-14T06:55:37.081Z,29.88
2018-07-14T06:56:37.276Z,30.23
2018-07-14T06:57:37.459Z,30.66
2018-07-14T06:58:37.659Z,31.27
2018-07-14T06:59:37.849Z,31.74
2018-07-14T07:00:38.104Z,30.94
2018-07-14T07:01:38.298Z,30.59
2018-07-14T07:02:38.730Z,30.54
2018-07-14T07:03:40.721Z,30.44
2018-07-14T07:04:39.602Z,30.62
2018-07-14T07:05:39.123Z,30.69
2018-07-14T07:06:39.351Z,30.83
2018-07-14T07:07:39.574Z,31.09
2018-07-14T07:08:39.790Z,31.37
2018-07-14T07:09:40.082Z,32.03
2018-07-14T07:10:40.148Z,32.70
2018-07-14T07:11:40.368Z,32.83
2018-07-14T07:12:40.661Z,33.12
2018-07-14T07:13:40.793Z,33.32
2018-07-14T07:14:41.303Z,33.67
2018-07-14T07:15:41.166Z,33.81
2018-07-14T07:16:41.319Z,33.92
2018-07-14T07:17:41.519Z,34.11
2018-07-14T07:18:41.725Z,34.23
2018-07-14T07:19:41.918Z,34.33
2018-07-14T07:20:42.114Z,33.89
2018-07-14T07:21:42.315Z,33.05
2018-07-14T07:22:42.526Z,33.12
2018-07-14T07:23:42.701Z,33.71
2018-07-14T07:24:42.894Z,33.98
2018-07-14T07:25:43.230Z,34.61
2018-07-14T07:26:43.296Z,35.24
2018-07-14T07:27:43.502Z,35.82
2018-07-14T07:28:43.759Z,36.42
2018-07-14T07:29:43.883Z,36.73
2018-07-14T07:30:44.084Z,36.95
2018-07-14T07:31:44.294Z,37.26
2018-07-14T07:32:44.490Z,37.36
2018-07-14T07:33:44.750Z,37.71
2018-07-14T07:34:44.965Z,37.74
2018-07-14T07:35:45.145Z,37.89
2018-07-14T07:36:45.343Z,37.78
2018-07-14T07:37:45.552Z,37.94
2018-07-14T07:38:45.744Z,38.28
2018-07-14T07:39:45.944Z,38.58
2018-07-14T07:40:46.138Z,38.67
2018-07-14T07:41:46.752Z,38.69
2018-07-14T07:42:46.473Z,39.00
2018-07-14T07:43:46.661Z,39.14
2018-07-14T07:44:46.856Z,39.17
2018-07-14T07:45:47.050Z,39.41
2018-07-14T07:46:47.244Z,39.19
2018-07-14T07:47:47.439Z,39.40
2018-07-14T07:48:47.633Z,39.78
2018-07-14T07:49:47.830Z,39.65
2018-07-14T07:50:48.044Z,39.78
2018-07-14T07:51:48.237Z,39.59
2018-07-14T07:52:48.442Z,39.53
2018-07-14T07:53:50.177Z,39.43
2018-07-14T07:54:50.108Z,39.43
2018-07-14T07:55:48.972Z,39.62
2018-07-14T07:56:49.286Z,39.55
2018-07-14T07:57:51.381Z,38.82
2018-07-14T07:58:50.102Z,39.15
2018-07-14T07:59:49.846Z,39.21
2018-07-14T08:00:50.047Z,39.21
2018-07-14T08:01:50.256Z,39.21
2018-07-14T08:02:50.537Z,39.02
2018-07-14T08:03:50.589Z,39.06
2018-07-14T08:04:50.790Z,39.72
2018-07-14T08:05:50.994Z,40.05
2018-07-14T08:06:51.375Z,40.72
2018-07-14T08:07:52.868Z,40.96
2018-07-14T08:08:51.576Z,41.22
2018-07-14T08:09:51.801Z,40.87
2018-07-14T08:10:51.974Z,40.96
2018-07-14T08:11:52.987Z,41.36
2018-07-14T08:12:52.370Z,41.68
2018-07-14T08:13:52.564Z,42.24
2018-07-14T08:14:52.761Z,42.48
2018-07-14T08:15:52.959Z,42.21
2018-07-14T08:16:53.157Z,41.80
2018-07-14T08:17:53.362Z,41.44
2018-07-14T08:18:53.571Z,41.02
2018-07-14T08:19:53.767Z,41.57
2018-07-14T08:20:54.014Z,41.66
2018-07-14T08:21:54.473Z,41.40
2018-07-14T08:22:54.557Z,40.87
2018-07-14T08:23:54.631Z,40.73
2018-07-14T08:24:54.831Z,40.97
2018-07-14T08:25:55.029Z,41.16
2018-07-14T08:26:55.224Z,41.26
2018-07-14T08:27:55.431Z,41.41
2018-07-14T08:28:55.630Z,41.77
2018-07-14T08:29:55.986Z,42.04
2018-07-14T08:30:56.054Z,41.40
2018-07-14T08:31:56.255Z,40.16
2018-07-14T08:32:56.448Z,40.59
2018-07-14T08:33:56.776Z,40.51
2018-07-14T08:34:56.852Z,41.10
2018-07-14T08:35:57.051Z,40.34
2018-07-14T08:36:57.285Z,40.70
2018-07-14T08:37:57.707Z,40.96
2018-07-14T08:38:57.610Z,40.90
2018-07-14T08:39:57.821Z,40.97
2018-07-14T08:40:58.020Z,41.40
2018-07-14T08:41:58.211Z,41.72
2018-07-14T08:42:58.414Z,41.88
2018-07-14T08:43:58.609Z,41.98
2018-07-14T08:44:58.820Z,41.99
2018-07-14T08:45:59.047Z,42.04
2018-07-14T08:46:59.248Z,41.88
2018-07-14T08:47:59.439Z,41.07
2018-07-14T08:48:59.630Z,40.97
2018-07-14T08:49:59.832Z,41.03
2018-07-14T08:51:00.110Z,41.53
2018-07-14T08:52:00.255Z,41.36
2018-07-14T08:53:00.647Z,41.36
2018-07-14T08:54:00.596Z,41.04
2018-07-14T08:55:00.798Z,40.66
2018-07-14T08:56:01.005Z,40.38
2018-07-14T08:57:01.192Z,40.31
2018-07-14T08:58:01.388Z,40.47
2018-07-14T08:59:01.581Z,40.61
2018-07-14T09:00:01.771Z,40.78
2018-07-14T09:01:01.971Z,41.06
2018-07-14T09:02:02.164Z,40.65
2018-07-14T09:03:02.367Z,40.46
2018-07-14T09:04:02.590Z,40.82
2018-07-14T09:05:02.776Z,41.14
2018-07-14T09:06:02.978Z,41.43
2018-07-14T09:07:03.171Z,41.83
2018-07-14T09:08:03.401Z,41.22
2018-07-14T09:09:03.593Z,41.36
2018-07-14T09:10:03.800Z,41.38
2018-07-14T09:11:04.528Z,41.38
2018-07-14T09:12:04.194Z,41.15
2018-07-14T09:13:04.392Z,41.03
2018-07-14T09:14:04.590Z,40.87
2018-07-14T09:15:04.810Z,40.84
2018-07-14T09:16:05.008Z,41.14
2018-07-14T09:17:05.199Z,41.36
2018-07-14T09:18:05.421Z,41.24
2018-07-14T09:19:05.646Z,40.90
2018-07-14T09:20:05.836Z,41.09
2018-07-14T09:21:07.079Z,39.74
2018-07-14T09:22:07.780Z,39.92
2018-07-14T09:23:06.453Z,39.41
2018-07-14T09:24:06.544Z,39.51
2018-07-14T09:25:06.717Z,39.85
2018-07-14T09:26:06.926Z,40.38
2018-07-14T09:27:07.109Z,40.26
2018-07-14T09:28:07.309Z,39.40
2018-07-14T09:29:07.531Z,39.51
2018-07-14T09:30:07.728Z,38.48
2018-07-14T09:31:07.932Z,38.40
2018-07-14T09:32:08.127Z,39.06
2018-07-14T09:33:08.344Z,39.48
2018-07-14T09:34:08.554Z,39.99
2018-07-14T09:35:08.739Z,40.72
2018-07-14T09:36:08.930Z,41.00
2018-07-14T09:37:09.125Z,40.88
2018-07-14T09:38:09.323Z,40.34
2018-07-14T09:39:09.520Z,39.85
2018-07-14T09:40:09.798Z,39.46
2018-07-14T09:41:09.880Z,39.65
2018-07-14T09:42:10.075Z,39.89
2018-07-14T09:43:10.281Z,40.30
2018-07-14T09:44:10.477Z,40.73
2018-07-14T09:45:10.674Z,40.90
2018-07-14T09:46:10.871Z,41.03
2018-07-14T09:47:11.074Z,40.78
2018-07-14T09:48:11.275Z,41.14
2018-07-14T09:49:11.479Z,41.33
2018-07-14T09:50:11.705Z,41.36
2018-07-14T09:51:11.876Z,41.31
2018-07-14T09:52:12.081Z,41.57
2018-07-14T09:53:12.282Z,41.88
2018-07-14T09:54:12.470Z,42.02
2018-07-14T09:55:12.728Z,41.77
2018-07-14T09:56:12.865Z,41.91
2018-07-14T09:57:13.065Z,42.12
2018-07-14T09:58:13.257Z,41.45
2018-07-14T09:59:13.450Z,41.37
2018-07-14T10:00:13.652Z,41.37
2018-07-14T10:01:13.843Z,40.73
2018-07-14T10:02:14.057Z,40.65
2018-07-14T10:03:14.324Z,40.81
2018-07-14T10:04:14.455Z,40.90
2018-07-14T10:05:14.652Z,40.92
2018-07-14T10:06:14.926Z,40.61
2018-07-14T10:07:15.046Z,40.53
2018-07-14T10:08:15.246Z,40.43
2018-07-14T10:09:15.442Z,39.44
2018-07-14T10:10:15.647Z,39.43
2018-07-14T10:11:15.842Z,39.26
2018-07-14T10:12:16.039Z,39.24
2018-07-14T10:13:16.264Z,38.61
2018-07-14T10:14:16.433Z,38.27
2018-07-14T10:15:16.626Z,36.67
2018-07-14T10:16:16.823Z,36.28
2018-07-14T10:17:17.086Z,36.18
2018-07-14T10:18:17.145Z,36.04
2018-07-14T10:19:17.345Z,36.12
2018-07-14T10:20:17.538Z,36.09
2018-07-14T10:21:17.739Z,35.90
2018-07-14T10:22:17.984Z,35.53
2018-07-14T10:23:18.120Z,35.46
2018-07-14T10:24:18.318Z,35.51
2018-07-14T10:25:18.682Z,35.68
2018-07-14T10:26:19.007Z,35.64
2018-07-14T10:27:20.558Z,35.76
2018-07-14T10:28:20.950Z,35.83
2018-07-14T10:29:21.464Z,35.93
2018-07-14T10:30:21.325Z,36.20
2018-07-14T10:31:19.724Z,36.28
2018-07-14T10:32:19.825Z,36.25
2018-07-14T10:33:20.040Z,35.89
2018-07-14T10:34:20.163Z,35.15
2018-07-14T10:35:20.350Z,34.77
2018-07-14T10:36:20.744Z,34.77
2018-07-14T10:37:20.739Z,34.58
2018-07-14T10:38:21.465Z,34.60
2018-07-14T10:39:21.178Z,34.33
2018-07-14T10:40:21.622Z,34.01
2018-07-14T10:41:21.818Z,33.87
2018-07-14T10:42:21.915Z,33.64
2018-07-14T10:43:22.270Z,33.61
2018-07-14T10:44:22.524Z,33.40
2018-07-14T10:45:22.348Z,33.52
2018-07-14T10:46:22.818Z,33.14
2018-07-14T10:47:22.958Z,33.19
2018-07-14T10:48:23.405Z,32.78
2018-07-14T10:49:23.422Z,32.70
2018-07-14T10:50:23.616Z,32.64
2018-07-14T10:51:23.650Z,32.34
2018-07-14T10:52:23.898Z,32.03
2018-07-14T10:53:23.974Z,31.99
2018-07-14T10:54:23.861Z,31.74
2018-07-14T10:55:24.231Z,32.08
2018-07-14T10:56:24.630Z,32.27
2018-07-14T10:57:24.512Z,32.46
2018-07-14T10:58:24.799Z,32.37
2018-07-14T10:59:25.171Z,32.29
2018-07-14T11:00:25.022Z,32.15
2018-07-14T11:01:25.397Z,32.03
2018-07-14T11:02:25.716Z,32.12
2018-07-14T11:03:25.645Z,32.07
2018-07-14T11:04:26.104Z,32.09
2018-07-14T11:05:26.284Z,31.97
2018-07-14T11:06:26.126Z,31.93
2018-07-14T11:07:26.502Z,31.93
2018-07-14T11:08:26.570Z,31.99
2018-07-14T11:09:26.810Z,32.09
2018-07-14T11:10:27.020Z,32.18
2018-07-14T11:11:27.090Z,32.21
2018-07-14T11:12:27.360Z,32.31
2018-07-14T11:13:27.609Z,32.30
2018-07-14T11:14:27.772Z,32.33
2018-07-14T11:15:27.941Z,32.26
2018-07-14T11:16:28.049Z,32.33
2018-07-14T11:17:28.155Z,32.18
2018-07-14T11:18:28.153Z,32.07
2018-07-14T11:19:28.479Z,31.87
2018-07-14T11:20:28.627Z,31.89
2018-07-14T11:21:28.554Z,31.84
2018-07-14T11:22:28.680Z,31.87
2018-07-14T11:23:29.062Z,31.85
2018-07-14T11:24:29.488Z,31.69
2018-07-14T11:25:29.460Z,31.22
2018-07-14T11:26:29.763Z,31.51
2018-07-14T11:27:29.701Z,31.46
2018-07-14T11:28:29.844Z,31.74
2018-07-14T11:29:30.006Z,32.04
2018-07-14T11:30:30.109Z,32.18
2018-07-14T11:31:30.641Z,32.40
2018-07-14T11:32:30.669Z,32.26
2018-07-14T11:33:30.817Z,32.22
2018-07-14T11:34:30.950Z,31.85
2018-07-14T11:35:31.207Z,31.76
2018-07-14T11:36:31.344Z,31.89
2018-07-14T11:37:31.651Z,31.73
2018-07-14T11:38:31.858Z,31.62
2018-07-14T11:39:32.265Z,31.73
2018-07-14T11:40:32.105Z,32.04
2018-07-14T11:41:32.359Z,32.18
2018-07-14T11:42:32.429Z,32.16
2018-07-14T11:43:32.723Z,32.34
2018-07-14T11:44:32.826Z,32.33
2018-07-14T11:45:32.685Z,32.30
2018-07-14T11:46:32.787Z,32.51
2018-07-14T11:47:35.967Z,32.55
2018-07-14T11:48:35.197Z,32.40
2018-07-14T11:49:35.306Z,32.30
2018-07-14T11:50:36.256Z,32.23
2018-07-14T11:51:34.562Z,32.18
2018-07-14T11:52:37.975Z,32.22
2018-07-14T11:53:39.432Z,32.18
2018-07-14T11:54:35.699Z,32.15
2018-07-14T11:55:34.628Z,31.97
2018-07-14T11:56:34.477Z,31.87
2018-07-14T11:57:34.680Z,31.69
2018-07-14T11:58:34.933Z,31.55
2018-07-14T11:59:35.116Z,31.59
2018-07-14T12:00:35.306Z,31.71
2018-07-14T12:01:35.495Z,31.62
2018-07-14T12:02:35.701Z,31.62
2018-07-14T12:03:35.953Z,31.84
2018-07-14T12:04:36.123Z,31.65
2018-07-14T12:05:36.322Z,31.65
2018-07-14T12:06:36.517Z,31.74
2018-07-14T12:07:36.735Z,31.70
2018-07-14T12:08:36.947Z,31.69
2018-07-14T12:09:37.020Z,31.61
2018-07-14T12:10:39.382Z,31.78
2018-07-14T12:11:37.446Z,31.85
2018-07-14T12:12:37.632Z,31.87
2018-07-14T12:13:37.833Z,31.87
2018-07-14T12:14:38.028Z,31.92
2018-07-14T12:15:38.219Z,31.87
2018-07-14T12:16:39.301Z,31.54
2018-07-14T12:17:38.625Z,31.47
2018-07-14T12:18:38.814Z,31.22
2018-07-14T12:19:38.999Z,31.25
2018-07-14T12:20:39.188Z,31.18
2018-07-14T12:21:39.376Z,31.18
2018-07-14T12:22:39.571Z,31.28
2018-07-14T12:23:39.760Z,31.22
2018-07-14T12:24:39.955Z,31.10
2018-07-14T12:25:40.154Z,31.14
2018-07-14T12:26:40.395Z,31.06
2018-07-14T12:27:40.614Z,31.21
2018-07-14T12:28:40.733Z,31.12
2018-07-14T12:29:40.936Z,30.90
2018-07-14T12:30:41.144Z,30.85
2018-07-14T12:31:41.325Z,31.00
2018-07-14T12:32:41.520Z,30.81
2018-07-14T12:33:41.706Z,30.92
2018-07-14T12:34:41.895Z,30.97
2018-07-14T12:35:42.086Z,30.92
2018-07-14T12:36:42.314Z,31.14
2018-07-14T12:37:42.485Z,31.18
2018-07-14T12:38:42.669Z,31.15
2018-07-14T12:39:42.864Z,31.06
2018-07-14T12:40:43.049Z,30.94
2018-07-14T12:41:43.316Z,30.92
2018-07-14T12:42:43.446Z,30.92
2018-07-14T12:43:43.635Z,30.72
2018-07-14T12:44:43.832Z,30.55
2018-07-14T12:45:44.023Z,30.48
2018-07-14T12:46:44.207Z,30.18
2018-07-14T12:47:44.391Z,30.12
2018-07-14T12:48:44.578Z,30.30
2018-07-14T12:49:44.759Z,30.39
2018-07-14T12:50:44.951Z,30.46
2018-07-14T12:51:45.146Z,30.68
2018-07-14T12:52:45.332Z,30.84
2018-07-14T12:53:45.536Z,30.90
2018-07-14T12:54:45.738Z,30.92